createdAt,value
2018-01-11T00:01:42.202Z,98476.06
2018-01-11T00:04:10.477Z,98474.75
2018-01-11T00:06:39.228Z,98466.69
2018-01-11T00:09:07.508Z,98469.08
2018-01-11T00:11:35.812Z,98464.33
2018-01-11T00:14:04.067Z,98465.61
2018-01-11T00:16:32.368Z,98467.05
2018-01-11T00:19:01.329Z,98464.30
2018-01-11T00:21:29.622Z,98462.98
2018-01-11T00:23:57.918Z,98468.53
2018-01-11T00:26:26.187Z,98466.17
2018-01-11T00:28:54.467Z,98462.73
2018-01-11T00:31:22.740Z,98461.57
2018-01-11T00:33:51.016Z,98463.28
2018-01-11T00:36:19.287Z,98463.53
2018-01-11T00:38:47.610Z,98455.74
2018-01-11T00:41:15.906Z,98458.41
2018-01-11T00:43:44.223Z,98459.75
2018-01-11T00:46:12.479Z,98456.97
2018-01-11T00:48:40.790Z,98457.09
2018-01-11T00:51:09.046Z,98458.78
2018-01-11T00:53:37.368Z,98454.85
2018-01-11T00:56:05.617Z,98459.20
2018-01-11T00:58:33.876Z,98455.90
2018-01-11T01:01:02.180Z,98453.78
2018-01-11T01:03:30.435Z,98457.89
2018-01-11T01:05:58.714Z,98457.48
2018-01-11T01:08:26.978Z,98461.17
2018-01-11T01:10:55.260Z,98459.05
2018-01-11T01:13:23.545Z,98465.38
2018-01-11T01:15:51.841Z,98462.61
2018-01-11T01:18:20.108Z,98465.12
2018-01-11T01:20:48.419Z,98462.77
2018-01-11T01:23:16.711Z,98462.22
2018-01-11T01:25:45.023Z,98460.89
2018-01-11T01:28:13.317Z,98460.50
2018-01-11T01:30:41.579Z,98454.58
2018-01-11T01:33:09.915Z,98462.89
2018-01-11T01:35:38.713Z,98465.12
2018-01-11T01:38:06.999Z,98466.45
2018-01-11T01:40:35.251Z,98461.45
2018-01-11T01:43:03.574Z,98460.77
2018-01-11T01:45:31.839Z,98475.30
2018-01-11T01:48:00.124Z,98470.82
2018-01-11T01:50:28.384Z,98476.37
2018-01-11T01:52:56.681Z,98481.21
2018-01-11T01:55:24.953Z,98484.37
2018-01-11T01:57:53.235Z,98486.61
2018-01-11T02:00:21.527Z,98485.30
2018-01-11T02:02:50.594Z,98483.98
2018-01-11T02:05:18.884Z,98485.70
2018-01-11T02:07:47.150Z,98485.05
2018-01-11T02:10:15.439Z,98472.26
2018-01-11T02:12:43.764Z,98486.88
2018-01-11T02:15:12.031Z,98478.18
2018-01-11T02:17:40.331Z,98481.61
2018-01-11T02:20:08.618Z,98480.57
2018-01-11T02:22:36.917Z,98479.38
2018-01-11T02:25:05.186Z,98477.94
2018-01-11T02:27:33.470Z,98477.91
2018-01-11T02:30:01.733Z,98481.19
2018-01-11T02:32:30.013Z,98486.38
2018-01-11T02:34:58.295Z,98484.00
2018-01-11T02:37:26.578Z,98489.92
2018-01-11T02:39:54.867Z,98492.95
2018-01-11T02:42:23.126Z,98494.27
2018-01-11T02:44:51.444Z,98491.38
2018-01-11T02:47:19.707Z,98489.67
2018-01-11T02:49:47.988Z,98497.98
2018-01-11T02:52:16.255Z,98495.31
2018-01-11T02:54:44.538Z,98496.52
2018-01-11T02:57:12.800Z,98503.23
2018-01-11T02:59:41.096Z,98504.67
2018-01-11T03:02:09.355Z,98509.95
2018-01-11T03:04:37.644Z,98502.84
2018-01-11T03:07:05.930Z,98505.86
2018-01-11T03:09:34.200Z,98500.34
2018-01-11T03:12:02.500Z,98507.33
2018-01-11T03:14:30.802Z,98506.26
2018-01-11T03:16:59.090Z,98513.13
2018-01-11T03:19:27.372Z,98510.77
2018-01-11T03:21:55.723Z,98507.33
2018-01-11T03:24:23.956Z,98506.66
2018-01-11T03:26:52.243Z,98506.68
2018-01-11T03:29:20.505Z,98512.08
2018-01-11T03:31:48.796Z,98513.39
2018-01-11T03:34:17.059Z,98512.32
2018-01-11T03:36:45.343Z,98518.80
2018-01-11T03:39:13.620Z,98522.36
2018-01-11T03:41:41.945Z,98522.08
2018-01-11T03:44:10.194Z,98521.44
2018-01-11T03:46:38.519Z,98509.55
2018-01-11T03:49:06.810Z,98510.08
2018-01-11T03:51:35.087Z,98515.88
2018-01-11T03:54:03.407Z,98515.24
2018-01-11T03:56:31.665Z,98522.62
2018-01-11T03:58:59.972Z,98519.85
2018-01-11T04:01:28.239Z,98525.91
2018-01-11T04:03:56.533Z,98531.19
2018-01-11T04:06:24.807Z,98513.61
2018-01-11T04:08:53.106Z,98519.69
2018-01-11T04:11:21.374Z,98519.97
2018-01-11T04:13:49.655Z,98522.45
2018-01-11T04:16:17.934Z,98523.13
2018-01-11T04:18:46.226Z,98526.16
2018-01-11T04:21:14.481Z,98526.80
2018-01-11T04:23:43.051Z,98529.31
2018-01-11T04:26:11.331Z,98536.82
2018-01-11T04:28:39.611Z,98532.61
2018-01-11T04:31:07.907Z,98523.50
2018-01-11T04:33:36.163Z,98538.52
2018-01-11T04:36:04.612Z,98536.27
2018-01-11T04:38:32.880Z,98539.43
2018-01-11T04:41:01.191Z,98539.59
2018-01-11T04:43:29.461Z,98546.17
2018-01-11T04:45:57.742Z,98544.31
2018-01-11T04:48:26.011Z,98542.08
2018-01-11T04:50:54.292Z,98543.63
2018-01-11T04:53:22.572Z,98544.94
2018-01-11T04:55:50.837Z,98547.09
2018-01-11T04:58:19.126Z,98542.19
2018-01-11T05:00:53.812Z,98552.99
2018-01-11T05:03:22.117Z,98552.73
2018-01-11T05:05:50.380Z,98555.66
2018-01-11T05:08:18.668Z,98556.44
2018-01-11T05:10:46.946Z,98554.84
2018-01-11T05:13:15.232Z,98557.73
2018-01-11T05:15:43.504Z,98555.78
2018-01-11T05:18:11.786Z,98558.66
2018-01-11T05:20:40.064Z,98556.44
2018-01-11T05:23:08.347Z,98560.52
2018-01-11T05:25:36.627Z,98559.20
2018-01-11T05:28:04.887Z,98561.03
2018-01-11T05:30:33.175Z,98563.14
2018-01-11T05:33:01.447Z,98566.58
2018-01-11T05:35:29.719Z,98569.61
2018-01-11T05:37:57.995Z,98572.66
2018-01-11T05:40:26.276Z,98577.64
2018-01-11T05:42:54.549Z,98576.47
2018-01-11T05:45:22.829Z,98580.56
2018-01-11T05:47:51.100Z,98576.73
2018-01-11T05:50:19.400Z,98578.43
2018-01-11T05:52:47.857Z,98579.23
2018-01-11T05:55:16.173Z,98577.77
2018-01-11T05:57:44.492Z,98577.78
2018-01-11T06:00:12.754Z,98581.56
2018-01-11T06:02:41.066Z,98583.96
2018-01-11T06:05:09.308Z,98586.33
2018-01-11T06:07:37.587Z,98594.11
2018-01-11T06:10:05.856Z,98595.95
2018-01-11T06:12:34.140Z,98596.45
2018-01-11T06:15:02.388Z,98598.46
2018-01-11T06:17:30.732Z,98603.45
2018-01-11T06:19:59.004Z,98606.89
2018-01-11T06:22:27.267Z,98608.33
2018-01-11T06:24:55.563Z,98610.04
2018-01-11T06:27:23.816Z,98612.16
2018-01-11T06:29:52.112Z,98618.70
2018-01-11T06:32:20.388Z,98618.20
2018-01-11T06:34:48.675Z,98618.30
2018-01-11T06:37:16.923Z,98631.75
2018-01-11T06:39:45.212Z,98625.05
2018-01-11T06:42:13.496Z,98628.23
2018-01-11T06:44:41.828Z,98625.73
2018-01-11T06:47:10.099Z,98633.25
2018-01-11T06:49:38.384Z,98637.23
2018-01-11T06:52:06.651Z,98632.67
2018-01-11T06:54:34.957Z,98639.58
2018-01-11T06:57:03.271Z,98638.93
2018-01-11T06:59:31.547Z,98649.73
2018-01-11T07:01:59.875Z,98653.54
2018-01-11T07:04:28.170Z,98662.62
2018-01-11T07:06:56.454Z,98662.62
2018-01-11T07:09:24.755Z,98660.50
2018-01-11T07:11:53.061Z,98668.95
2018-01-11T07:14:21.325Z,98671.45
2018-01-11T07:16:49.621Z,98670.38
2018-01-11T07:19:17.891Z,98669.07
2018-01-11T07:21:47.203Z,98677.10
2018-01-11T07:24:15.448Z,98688.41
2018-01-11T07:26:43.738Z,98678.65
2018-01-11T07:29:12.052Z,98687.37
2018-01-11T07:31:40.308Z,98691.82
2018-01-11T07:34:08.615Z,98696.55
2018-01-11T07:36:36.940Z,98702.74
2018-01-11T07:39:05.513Z,98694.70
2018-01-11T07:41:33.799Z,98701.01
2018-01-11T07:44:02.091Z,98706.52
2018-01-11T07:46:30.394Z,98712.30
2018-01-11T07:48:58.708Z,98709.02
2018-01-11T07:51:26.984Z,98716.72
2018-01-11T07:53:55.283Z,98709.75
2018-01-11T07:56:23.571Z,98717.48
2018-01-11T07:58:51.827Z,98718.09
2018-01-11T08:01:20.146Z,98724.92
2018-01-11T08:03:48.451Z,98732.72
2018-01-11T08:06:17.183Z,98736.67
2018-01-11T08:08:45.469Z,98741.11
2018-01-11T08:11:13.749Z,98744.59
2018-01-11T08:13:42.413Z,98740.50
2018-01-11T08:16:10.729Z,98749.11
2018-01-11T08:18:38.987Z,98747.20
2018-01-11T08:21:07.311Z,98755.91
2018-01-11T08:23:35.564Z,98750.45
2018-01-11T08:26:04.656Z,98754.97
2018-01-11T08:28:33.454Z,98759.23
2018-01-11T08:31:01.713Z,98762.82
2018-01-11T08:33:30.030Z,98767.09
2018-01-11T08:35:58.273Z,98765.46
2018-01-11T08:38:26.575Z,98777.00
2018-01-11T08:40:54.827Z,98779.05
2018-01-11T08:43:23.107Z,98771.97
2018-01-11T08:45:51.545Z,98780.47
2018-01-11T08:48:20.246Z,98783.91
2018-01-11T08:50:48.509Z,98782.16
2018-01-11T08:53:16.804Z,98781.73
2018-01-11T08:55:45.102Z,98787.53
2018-01-11T08:58:13.414Z,98794.23
2018-01-11T09:00:41.742Z,98798.63
2018-01-11T09:03:10.085Z,98792.58
2018-01-11T09:05:38.385Z,98801.84
2018-01-11T09:08:06.647Z,98808.73
2018-01-11T09:10:34.955Z,98805.45
2018-01-11T09:13:03.236Z,98814.68
2018-01-11T09:15:31.713Z,98816.62
2018-01-11T09:18:00.143Z,98810.59
2018-01-11T09:20:28.410Z,98816.38
2018-01-11T09:22:56.679Z,98823.53
2018-01-11T09:25:24.991Z,98820.65
2018-01-11T09:27:53.307Z,98823.44
2018-01-11T09:30:21.578Z,98817.12
2018-01-11T09:32:49.855Z,98832.97
2018-01-11T09:35:18.139Z,98834.31
2018-01-11T09:37:46.427Z,98825.72
2018-01-11T09:40:14.695Z,98832.98
2018-01-11T09:42:43.016Z,98829.75
2018-01-11T09:45:11.399Z,98836.97
2018-01-11T09:47:39.696Z,98836.03
2018-01-11T09:50:07.964Z,98836.05
2018-01-11T09:52:36.267Z,98841.05
2018-01-11T09:55:05.335Z,98849.01
2018-01-11T09:57:33.654Z,98848.84
2018-01-11T10:00:02.011Z,98853.50
2018-01-11T10:02:30.326Z,98853.11
2018-01-11T10:04:58.610Z,98848.21
2018-01-11T10:07:26.902Z,98862.23
2018-01-11T10:09:55.248Z,98855.59
2018-01-11T10:12:23.633Z,98859.45
2018-01-11T10:14:51.912Z,98853.11
2018-01-11T10:17:20.185Z,98860.66
2018-01-11T10:19:48.502Z,98856.94
2018-01-11T10:22:16.749Z,98849.96
2018-01-11T10:24:45.327Z,98856.03
2018-01-11T10:27:13.595Z,98857.50
2018-01-11T10:29:41.980Z,98848.77
2018-01-11T10:32:10.294Z,98859.08
2018-01-11T10:34:38.592Z,98858.16
2018-01-11T10:37:06.898Z,98856.56
2018-01-11T10:39:35.183Z,98860.26
2018-01-11T10:42:03.476Z,98860.52
2018-01-11T10:44:31.770Z,98862.77
2018-01-11T10:47:00.036Z,98868.84
2018-01-11T10:49:29.102Z,98866.61
2018-01-11T10:51:57.386Z,98866.09
2018-01-11T10:54:25.724Z,98869.11
2018-01-11T10:56:54.071Z,98863.83
2018-01-11T10:59:22.384Z,98856.43
2018-01-11T11:01:57.015Z,98871.61
2018-01-11T11:04:25.319Z,98872.69
2018-01-11T11:06:53.591Z,98872.16
2018-01-11T11:09:21.910Z,98873.20
2018-01-11T11:11:50.179Z,98868.72
2018-01-11T11:14:18.499Z,98871.09
2018-01-11T11:16:46.784Z,98869.39
2018-01-11T11:19:15.122Z,98869.79
2018-01-11T11:21:43.393Z,98869.24
2018-01-11T11:24:11.749Z,98864.49
2018-01-11T11:26:40.142Z,98867.66
2018-01-11T11:29:08.469Z,98866.20
2018-01-11T11:31:36.730Z,98863.69
2018-01-11T11:34:05.293Z,98864.09
2018-01-11T11:36:33.562Z,98862.66
2018-01-11T11:39:01.842Z,98862.39
2018-01-11T11:41:30.150Z,98863.97
2018-01-11T11:43:58.443Z,98862.80
2018-01-11T11:46:26.744Z,98860.93
2018-01-11T11:48:54.999Z,98864.77
2018-01-11T11:51:23.306Z,98863.82
2018-01-11T11:53:51.604Z,98863.02
2018-01-11T11:56:20.808Z,98863.95
2018-01-11T11:58:50.042Z,98865.64
2018-01-11T12:01:18.304Z,98867.52
2018-01-11T12:03:46.591Z,98868.59
2018-01-11T12:06:14.934Z,98865.79
2018-01-11T12:08:43.166Z,98869.76
2018-01-11T12:11:11.466Z,98873.81
2018-01-11T12:13:39.747Z,98870.89
2018-01-11T12:16:08.097Z,98868.28
2018-01-11T12:18:36.378Z,98867.44
2018-01-11T12:21:04.729Z,98874.27
2018-01-11T12:23:33.034Z,98867.11
2018-01-11T12:26:01.651Z,98865.39
2018-01-11T12:28:29.953Z,98867.08
2018-01-11T12:30:58.235Z,98864.31
2018-01-11T12:33:26.542Z,98861.11
2018-01-11T12:35:54.838Z,98864.39
2018-01-11T12:38:23.131Z,98861.86
2018-01-11T12:40:51.407Z,98865.94
2018-01-11T12:43:19.683Z,98864.78
2018-01-11T12:45:47.981Z,98870.72
2018-01-11T12:48:16.338Z,98872.09
2018-01-11T12:50:44.691Z,98841.66
2018-01-11T12:53:13.065Z,98859.04
2018-01-11T12:55:41.348Z,98865.59
2018-01-11T12:58:09.657Z,98871.56
2018-01-11T13:00:37.936Z,98862.20
2018-01-11T13:03:06.235Z,98868.19
2018-01-11T13:05:34.511Z,98875.84
2018-01-11T13:08:02.822Z,98872.46
2018-01-11T13:10:31.191Z,98877.44
2018-01-11T13:12:59.474Z,98865.83
2018-01-11T13:15:28.673Z,98878.09
2018-01-11T13:17:57.004Z,98886.06
2018-01-11T13:20:26.143Z,98882.75
2018-01-11T13:22:54.434Z,98900.66
2018-01-11T13:25:22.712Z,98899.23
2018-01-11T13:27:50.984Z,98899.86
2018-01-11T13:30:19.260Z,98907.02
2018-01-11T13:32:47.607Z,98902.09
2018-01-11T13:35:16.458Z,98909.52
2018-01-11T13:37:44.709Z,98905.91
2018-01-11T13:40:13.654Z,98903.48
2018-01-11T13:42:42.029Z,98903.48
2018-01-11T13:45:10.307Z,98912.70
2018-01-11T13:47:38.613Z,98911.51
2018-01-11T13:50:06.896Z,98914.66
2018-01-11T13:52:35.275Z,98913.37
2018-01-11T13:55:04.044Z,98914.69
2018-01-11T13:57:32.497Z,98915.05
2018-01-11T14:00:00.791Z,98927.78
2018-01-11T14:02:29.266Z,98927.50
2018-01-11T14:04:58.367Z,98935.45
2018-01-11T14:07:26.652Z,98934.65
2018-01-11T14:09:54.955Z,98939.44
2018-01-11T14:12:23.210Z,98935.63
2018-01-11T14:14:51.503Z,98945.55
2018-01-11T14:17:19.762Z,98944.77
2018-01-11T14:19:48.154Z,98946.77
2018-01-11T14:22:17.207Z,98956.96
2018-01-11T14:24:46.029Z,98952.49
2018-01-11T14:27:14.292Z,98958.70
2018-01-11T14:29:42.620Z,98949.05
2018-01-11T14:32:10.900Z,98963.36
2018-01-11T14:34:39.247Z,98964.92
2018-01-11T14:37:07.494Z,98955.70
2018-01-11T14:39:35.803Z,98968.84
2018-01-11T14:42:04.196Z,98967.41
2018-01-11T14:44:32.453Z,98974.55
2018-01-11T14:47:00.819Z,98968.25
2018-01-11T14:49:29.107Z,98982.23
2018-01-11T14:51:57.556Z,98984.88
2018-01-11T14:54:25.787Z,98992.02
2018-01-11T14:56:54.183Z,98980.45
2018-01-11T14:59:22.508Z,98989.32
2018-01-11T15:01:50.798Z,98977.05
2018-01-11T15:04:19.067Z,98990.44
2018-01-11T15:06:47.339Z,99002.63
2018-01-11T15:09:15.959Z,99001.58
2018-01-11T15:11:44.235Z,98999.97
2018-01-11T15:14:12.578Z,98999.05
2018-01-11T15:16:40.901Z,99008.98
2018-01-11T15:19:09.165Z,98999.59
2018-01-11T15:21:37.448Z,99015.72
2018-01-11T15:24:05.773Z,99016.52
2018-01-11T15:26:34.088Z,99021.00
2018-01-11T15:29:02.384Z,99024.72
2018-01-11T15:31:30.650Z,99029.11
2018-01-11T15:33:58.931Z,99020.09
2018-01-11T15:36:27.279Z,99028.69
2018-01-11T15:38:55.985Z,99032.91
2018-01-11T15:41:24.261Z,99038.62
2018-01-11T15:43:52.587Z,99041.51
2018-01-11T15:46:20.897Z,99045.88
2018-01-11T15:48:49.181Z,99045.23
2018-01-11T15:51:17.532Z,99047.97
2018-01-11T15:53:45.802Z,99047.93
2018-01-11T15:56:14.078Z,99046.00
2018-01-11T15:58:42.380Z,99043.48
2018-01-11T16:01:10.680Z,99052.59
2018-01-11T16:03:38.986Z,99054.98
2018-01-11T16:06:07.290Z,99066.61
2018-01-11T16:08:35.581Z,99066.14
2018-01-11T16:11:03.903Z,99066.77
2018-01-11T16:13:32.571Z,99072.20
2018-01-11T16:16:02.333Z,99074.94
2018-01-11T16:18:30.669Z,99082.11
2018-01-11T16:20:59.764Z,99086.37
2018-01-11T16:23:28.049Z,99087.30
2018-01-11T16:25:56.439Z,99086.48
2018-01-11T16:28:24.726Z,99092.17
2018-01-11T16:30:53.032Z,99089.98
2018-01-11T16:33:21.299Z,99085.83
2018-01-11T16:35:49.627Z,99093.93
2018-01-11T16:38:17.894Z,99078.27
2018-01-11T16:40:46.197Z,99091.72
2018-01-11T16:43:14.584Z,99092.03
2018-01-11T16:45:42.879Z,99102.78
2018-01-11T16:48:11.190Z,99100.87
2018-01-11T16:50:39.500Z,99103.64
2018-01-11T16:53:07.826Z,99103.49
2018-01-11T16:55:36.080Z,99112.23
2018-01-11T16:58:04.846Z,99110.30
2018-01-11T17:00:33.106Z,99113.40
2018-01-11T17:03:01.376Z,99117.91
2018-01-11T17:05:29.692Z,99110.28
2018-01-11T17:07:57.979Z,99128.89
2018-01-11T17:10:26.303Z,99121.84
2018-01-11T17:12:54.599Z,99131.41
2018-01-11T17:15:22.899Z,99142.42
2018-01-11T17:17:51.235Z,99133.47
2018-01-11T17:20:19.522Z,99141.69
2018-01-11T17:22:47.889Z,99144.27
2018-01-11T17:25:16.308Z,99143.45
2018-01-11T17:27:44.570Z,99145.02
2018-01-11T17:30:12.908Z,99149.51
2018-01-11T17:32:41.682Z,99149.66
2018-01-11T17:35:09.971Z,99157.61
2018-01-11T17:37:38.299Z,99160.36
2018-01-11T17:40:06.582Z,99167.95
2018-01-11T17:42:34.888Z,99170.75
2018-01-11T17:45:03.203Z,99168.50
2018-01-11T17:47:31.513Z,99171.20
2018-01-11T17:49:59.796Z,99178.95
2018-01-11T17:52:28.171Z,99185.06
2018-01-11T17:54:56.446Z,99177.55
2018-01-11T17:57:24.765Z,99185.14
2018-01-11T17:59:53.053Z,99185.23
2018-01-11T18:02:21.348Z,99183.23
2018-01-11T18:04:49.604Z,99198.41
2018-01-11T18:07:17.886Z,99197.75
2018-01-11T18:09:46.212Z,99201.45
2018-01-11T18:12:14.476Z,99202.81
2018-01-11T18:14:42.792Z,99203.38
2018-01-11T18:17:11.080Z,99204.44
2018-01-11T18:19:39.375Z,99210.97
2018-01-11T18:22:07.653Z,99214.90
2018-01-11T18:24:36.015Z,99213.67
2018-01-11T18:27:04.647Z,99219.97
2018-01-11T18:29:32.934Z,99226.34
2018-01-11T18:32:01.204Z,99223.39
2018-01-11T18:34:29.543Z,99231.09
2018-01-11T18:36:57.800Z,99231.52
2018-01-11T18:39:26.909Z,99232.19
2018-01-11T18:41:55.739Z,99229.69
2018-01-11T18:44:24.009Z,99227.85
2018-01-11T18:46:52.312Z,99224.23
2018-01-11T18:49:20.597Z,99239.52
2018-01-11T18:51:48.937Z,99235.45
2018-01-11T18:54:17.199Z,99238.55
2018-01-11T18:56:45.515Z,99244.57
2018-01-11T18:59:14.110Z,99248.02
2018-01-11T19:01:42.440Z,99251.66
2018-01-11T19:04:10.751Z,99247.81
2018-01-11T19:06:39.028Z,99255.01
2018-01-11T19:09:07.331Z,99250.80
2018-01-11T19:11:35.617Z,99248.92
2018-01-11T19:14:03.965Z,99250.05
2018-01-11T19:16:32.260Z,99269.50
2018-01-11T19:19:00.559Z,99264.73
2018-01-11T19:21:28.841Z,99267.52
2018-01-11T19:23:57.144Z,99270.38
2018-01-11T19:26:25.420Z,99272.62
2018-01-11T19:28:53.743Z,99273.97
2018-01-11T19:31:22.025Z,99272.88
2018-01-11T19:33:50.332Z,99268.83
2018-01-11T19:36:18.628Z,99262.27
2018-01-11T19:38:46.935Z,99276.29
2018-01-11T19:41:15.300Z,99279.95
2018-01-11T19:43:43.615Z,99280.41
2018-01-11T19:46:11.892Z,99276.16
2018-01-11T19:48:40.176Z,99279.31
2018-01-11T19:51:08.481Z,99286.60
2018-01-11T19:53:36.810Z,99287.81
2018-01-11T19:56:05.081Z,99285.83
2018-01-11T19:58:33.403Z,99294.88
2018-01-11T20:01:01.754Z,99298.26
2018-01-11T20:03:30.018Z,99301.30
2018-01-11T20:05:58.316Z,99303.31
2018-01-11T20:08:26.604Z,99308.81
2018-01-11T20:10:55.389Z,99306.83
2018-01-11T20:13:23.678Z,99308.44
2018-01-11T20:15:51.954Z,99310.38
2018-01-11T20:18:20.235Z,99313.46
2018-01-11T20:20:48.543Z,99316.28
2018-01-11T20:23:16.815Z,99316.02
2018-01-11T20:25:45.131Z,99312.58
2018-01-11T20:28:13.425Z,99311.62
2018-01-11T20:30:41.737Z,99310.75
2018-01-11T20:33:10.053Z,99315.84
2018-01-11T20:35:38.353Z,99319.09
2018-01-11T20:38:06.628Z,99323.16
2018-01-11T20:40:34.942Z,99327.41
2018-01-11T20:43:04.293Z,99330.02
2018-01-11T20:45:32.594Z,99323.40
2018-01-11T20:48:00.872Z,99324.23
2018-01-11T20:50:29.203Z,99333.52
2018-01-11T20:52:57.508Z,99339.76
2018-01-11T20:55:25.827Z,99335.39
2018-01-11T20:57:54.165Z,99339.95
2018-01-11T21:00:22.467Z,99339.28
2018-01-11T21:02:50.763Z,99336.78
2018-01-11T21:05:19.057Z,99348.01
2018-01-11T21:07:47.376Z,99345.91
2018-01-11T21:10:15.660Z,99345.66
2018-01-11T21:12:43.976Z,99347.19
2018-01-11T21:15:12.263Z,99350.52
2018-01-11T21:17:40.712Z,99360.69
2018-01-11T21:20:09.024Z,99361.61
2018-01-11T21:22:37.292Z,99354.73
2018-01-11T21:25:05.627Z,99349.28
2018-01-11T21:27:33.901Z,99359.64
2018-01-11T21:30:02.219Z,99362.43
2018-01-11T21:32:30.488Z,99362.47
2018-01-11T21:34:59.343Z,99365.81
2018-01-11T21:37:27.599Z,99374.19
2018-01-11T21:39:55.898Z,99377.23
2018-01-11T21:42:24.207Z,99373.53
2018-01-11T21:44:52.523Z,99376.72
2018-01-11T21:47:20.804Z,99369.33
2018-01-11T21:49:49.153Z,99377.09
2018-01-11T21:52:17.419Z,99365.66
2018-01-11T21:54:45.745Z,99387.48
2018-01-11T21:57:14.065Z,99380.38
2018-01-11T21:59:42.348Z,99374.99
2018-01-11T22:02:10.649Z,99374.30
2018-01-11T22:04:38.971Z,99364.50
2018-01-11T22:07:07.284Z,99381.44
2018-01-11T22:09:35.571Z,99376.30
2018-01-11T22:12:03.884Z,99372.10
2018-01-11T22:14:32.169Z,99377.63
2018-01-11T22:17:00.488Z,99392.48
2018-01-11T22:19:28.779Z,99399.28
2018-01-11T22:21:57.080Z,99390.77
2018-01-11T22:24:25.373Z,99391.69
2018-01-11T22:26:53.689Z,99395.55
2018-01-11T22:29:21.991Z,99399.03
2018-01-11T22:31:50.261Z,99395.03
2018-01-11T22:34:18.579Z,99404.96
2018-01-11T22:36:46.863Z,99401.86
2018-01-11T22:39:15.183Z,99406.48
2018-01-11T22:41:43.459Z,99397.27
2018-01-11T22:44:11.821Z,99404.36
2018-01-11T22:46:40.098Z,99410.53
2018-01-11T22:49:08.455Z,99410.73
2018-01-11T22:51:36.663Z,99416.81
2018-01-11T22:54:04.939Z,99415.61
2018-01-11T22:56:33.242Z,99421.58
2018-01-11T22:59:01.532Z,99419.25
2018-01-11T23:01:29.814Z,99419.58
2018-01-11T23:03:58.124Z,99421.09
2018-01-11T23:06:26.537Z,99423.30
2018-01-11T23:08:55.025Z,99434.08
2018-01-11T23:11:28.936Z,99429.17
2018-01-11T23:13:57.238Z,99432.78
2018-01-11T23:16:25.831Z,99440.08
2018-01-11T23:18:54.364Z,99439.05
2018-01-11T23:21:22.691Z,99427.75
2018-01-11T23:23:50.974Z,99437.69
2018-01-11T23:26:19.236Z,99442.50
2018-01-11T23:28:47.537Z,99438.74
2018-01-11T23:31:15.812Z,99432.95
2018-01-11T23:33:44.124Z,99434.16
2018-01-11T23:36:12.404Z,99434.31
2018-01-11T23:38:40.733Z,99431.83
2018-01-11T23:41:09.345Z,99436.81
2018-01-11T23:43:37.643Z,99434.23
2018-01-11T23:46:05.927Z,99437.20
2018-01-11T23:48:34.231Z,99438.48
2018-01-11T23:51:02.511Z,99439.00
2018-01-11T23:53:30.902Z,99442.23
2018-01-11T23:55:59.215Z,99436.31
2018-01-11T23:58:27.491Z,99442.78
